createdAt,value
2022-10-11T00:01:22.786Z,13.60
2022-10-11T00:03:52.295Z,13.53
2022-10-11T00:06:20.260Z,13.51
2022-10-11T00:08:48.258Z,13.58
2022-10-11T00:11:16.311Z,13.60
2022-10-11T00:13:44.293Z,13.60
2022-10-11T00:16:14.301Z,13.81
2022-10-11T00:18:43.248Z,13.69
2022-10-11T00:21:15.123Z,13.76
2022-10-11T00:23:43.718Z,13.69
2022-10-11T00:26:12.505Z,13.54
2022-10-11T00:28:41.591Z,13.48
2022-10-11T00:31:10.982Z,13.41
2022-10-11T00:33:39.040Z,13.48
2022-10-11T00:36:08.762Z,13.52
2022-10-11T00:38:38.518Z,13.50
2022-10-11T00:41:06.815Z,13.50
2022-10-11T00:43:35.014Z,13.42
2022-10-11T00:46:28.421Z,13.51
2022-10-11T00:49:01.886Z,13.59
2022-10-11T00:51:39.019Z,13.57
2022-10-11T00:54:12.777Z,13.57
2022-10-11T00:56:41.314Z,13.48
2022-10-11T00:59:15.145Z,13.21
2022-10-11T01:01:43.312Z,13.43
2022-10-11T01:04:11.342Z,13.46
2022-10-11T01:06:39.335Z,13.48
2022-10-11T01:09:09.667Z,13.33
2022-10-11T01:11:40.581Z,13.37
2022-10-11T01:14:40.341Z,13.28
2022-10-11T01:17:16.956Z,13.21
2022-10-11T01:20:16.633Z,13.39
2022-10-11T01:23:09.998Z,13.32
2022-10-11T01:25:51.164Z,13.41
2022-10-11T01:28:34.227Z,13.43
2022-10-11T01:31:11.547Z,13.34
2022-10-11T01:33:44.491Z,13.26
2022-10-11T01:36:17.524Z,13.25
2022-10-11T01:38:50.976Z,13.30
2022-10-11T01:41:25.127Z,13.20
2022-10-11T01:43:57.982Z,13.27
2022-10-11T01:46:28.439Z,13.21
2022-10-11T01:48:58.994Z,13.23
2022-10-11T01:51:30.354Z,13.35
2022-10-11T01:54:12.346Z,13.36
2022-10-11T01:57:12.405Z,13.18
2022-10-11T01:59:51.494Z,13.26
2022-10-11T02:02:33.741Z,13.39
2022-10-11T02:05:09.936Z,13.42
2022-10-11T02:07:44.402Z,13.51
2022-10-11T02:10:16.861Z,13.51
2022-10-11T02:12:49.018Z,13.43
2022-10-11T02:15:20.348Z,13.39
2022-10-11T02:17:57.589Z,13.41
2022-10-11T02:20:27.436Z,13.32
2022-10-11T02:23:02.095Z,13.40
2022-10-11T02:25:34.000Z,13.43
2022-10-11T02:28:05.212Z,13.45
2022-10-11T02:30:34.965Z,13.40
2022-10-11T02:33:08.076Z,13.47
2022-10-11T02:35:43.194Z,13.45
2022-10-11T02:38:19.843Z,12.98
2022-10-11T02:40:52.759Z,13.23
2022-10-11T02:43:26.119Z,13.30
2022-10-11T02:45:57.791Z,13.36
2022-10-11T02:48:29.404Z,13.35
2022-10-11T02:50:58.171Z,13.35
2022-10-11T02:53:27.753Z,13.43
2022-10-11T02:55:56.939Z,13.17
2022-10-11T02:58:25.611Z,13.40
2022-10-11T03:00:53.743Z,13.23
2022-10-11T03:03:22.030Z,13.15
2022-10-11T03:05:51.380Z,13.11
2022-10-11T03:08:19.368Z,13.10
2022-10-11T03:10:47.705Z,13.07
2022-10-11T03:13:18.265Z,13.05
2022-10-11T03:16:01.947Z,13.07
2022-10-11T03:18:31.371Z,13.17
2022-10-11T03:21:00.762Z,12.75
2022-10-11T03:23:28.745Z,13.28
2022-10-11T03:25:57.101Z,13.00
2022-10-11T03:28:25.120Z,12.83
2022-10-11T03:30:53.653Z,12.90
2022-10-11T03:33:21.752Z,12.83
2022-10-11T03:35:50.456Z,12.87
2022-10-11T03:38:22.554Z,12.90
2022-10-11T03:40:50.515Z,12.89
2022-10-11T03:43:18.830Z,13.02
2022-10-11T03:45:46.870Z,13.10
2022-10-11T03:48:14.879Z,12.96
2022-10-11T03:50:42.878Z,13.12
2022-10-11T03:53:10.865Z,13.06
2022-10-11T03:55:41.285Z,12.97
2022-10-11T03:58:09.624Z,12.97
2022-10-11T04:00:38.227Z,12.89
2022-10-11T04:03:06.286Z,12.84
2022-10-11T04:05:34.316Z,12.90
2022-10-11T04:08:02.363Z,12.80
2022-10-11T04:10:31.161Z,12.76
2022-10-11T04:13:00.627Z,12.83
2022-10-11T04:15:28.573Z,12.71
2022-10-11T04:17:56.521Z,12.53
2022-10-11T04:20:24.482Z,12.49
2022-10-11T04:22:52.527Z,12.10
2022-10-11T04:25:20.518Z,12.43
2022-10-11T04:27:48.693Z,12.18
2022-10-11T04:30:18.303Z,12.34
2022-10-11T04:32:46.382Z,12.30
2022-10-11T04:35:14.452Z,12.29
2022-10-11T04:37:42.441Z,12.17
2022-10-11T04:40:11.910Z,12.03
2022-10-11T04:42:39.872Z,11.84
2022-10-11T04:45:09.498Z,11.74
2022-10-11T04:47:40.529Z,11.63
2022-10-11T04:50:08.927Z,11.80
2022-10-11T04:52:36.962Z,11.58
2022-10-11T04:55:05.473Z,11.36
2022-10-11T04:57:33.847Z,11.46
2022-10-11T05:00:01.809Z,11.41
2022-10-11T05:02:29.839Z,11.41
2022-10-11T05:04:59.315Z,11.34
2022-10-11T05:07:27.309Z,11.30
2022-10-11T05:09:55.477Z,11.31
2022-10-11T05:12:23.465Z,11.34
2022-10-11T05:14:51.429Z,11.21
2022-10-11T05:17:19.427Z,11.29
2022-10-11T05:19:47.450Z,11.12
2022-10-11T05:22:16.970Z,10.98
2022-10-11T05:24:44.906Z,10.81
2022-10-11T05:27:12.899Z,10.68
2022-10-11T05:29:40.825Z,10.68
2022-10-11T05:32:08.792Z,10.52
2022-10-11T05:34:36.746Z,10.77
2022-10-11T05:37:04.714Z,10.74
2022-10-11T05:39:34.109Z,10.57
2022-10-11T05:42:03.187Z,10.34
2022-10-11T05:44:32.511Z,10.50
2022-10-11T05:47:00.453Z,10.64
2022-10-11T05:49:28.465Z,10.68
2022-10-11T05:51:56.369Z,10.62
2022-10-11T05:54:24.380Z,10.69
2022-10-11T05:56:53.730Z,10.76
2022-10-11T05:59:21.683Z,10.88
2022-10-11T06:01:50.617Z,10.75
2022-10-11T06:04:19.107Z,10.90
2022-10-11T06:06:47.171Z,10.85
2022-10-11T06:09:15.118Z,10.98
2022-10-11T06:11:44.197Z,11.03
2022-10-11T06:14:13.765Z,11.16
2022-10-11T06:16:41.747Z,11.20
2022-10-11T06:19:09.747Z,11.39
2022-10-11T06:21:37.732Z,11.38
2022-10-11T06:24:06.608Z,11.63
2022-10-11T06:26:35.073Z,11.61
2022-10-11T06:29:06.557Z,11.71
2022-10-11T06:31:36.736Z,11.73
2022-10-11T06:34:05.060Z,11.72
2022-10-11T06:36:33.198Z,11.76
2022-10-11T06:39:01.595Z,12.00
2022-10-11T06:41:31.338Z,12.01
2022-10-11T06:43:59.628Z,12.11
2022-10-11T06:46:28.989Z,12.18
2022-10-11T06:48:58.379Z,12.15
2022-10-11T06:51:28.715Z,12.29
2022-10-11T06:53:58.823Z,12.18
2022-10-11T06:56:28.315Z,12.23
2022-10-11T06:58:57.514Z,12.22
2022-10-11T07:01:25.965Z,12.09
2022-10-11T07:03:55.991Z,12.13
2022-10-11T07:06:27.785Z,12.00
2022-10-11T07:08:55.835Z,12.15
2022-10-11T07:11:25.637Z,12.14
2022-10-11T07:13:58.048Z,12.25
2022-10-11T07:16:26.449Z,12.42
2022-10-11T07:19:15.327Z,12.48
2022-10-11T07:21:44.730Z,12.55
2022-10-11T07:24:12.627Z,12.61
2022-10-11T07:26:40.963Z,12.74
2022-10-11T07:29:10.105Z,12.95
2022-10-11T07:31:39.651Z,13.03
2022-10-11T07:34:07.702Z,13.11
2022-10-11T07:36:35.595Z,13.11
2022-10-11T07:39:07.719Z,13.16
2022-10-11T07:41:38.151Z,12.87
2022-10-11T07:44:08.842Z,13.39
2022-10-11T07:46:37.007Z,13.30
2022-10-11T07:49:04.984Z,13.44
2022-10-11T07:54:20.973Z,13.70
2022-10-11T07:56:48.940Z,13.73
2022-10-11T07:59:16.936Z,13.85
2022-10-11T08:01:45.447Z,13.88
2022-10-11T08:04:13.499Z,13.85
2022-10-11T08:06:41.483Z,13.88
2022-10-11T08:09:10.397Z,13.94
2022-10-11T08:11:40.508Z,13.79
2022-10-11T08:16:56.636Z,14.00
2022-10-11T08:19:24.589Z,14.09
2022-10-11T08:21:52.585Z,14.27
2022-10-11T08:24:21.172Z,14.17
2022-10-11T08:43:51.155Z,14.35
2022-10-11T08:46:25.108Z,14.20
2022-10-11T08:48:53.772Z,14.37
2022-10-11T08:51:26.118Z,14.34
2022-10-11T08:54:04.710Z,14.32
2022-10-11T08:56:38.936Z,13.87
2022-10-11T08:59:23.141Z,13.81
2022-10-11T09:01:57.814Z,14.33
2022-10-11T09:04:26.124Z,14.14
2022-10-11T09:07:05.133Z,14.32
2022-10-11T09:09:54.544Z,14.19
2022-10-11T09:12:34.286Z,14.37
2022-10-11T09:15:22.330Z,14.65
2022-10-11T09:18:12.707Z,15.01
2022-10-11T09:21:10.501Z,14.76
2022-10-11T09:24:27.010Z,15.10
2022-10-11T09:30:41.790Z,14.86
2022-10-11T09:33:18.811Z,14.62
2022-10-11T09:35:49.955Z,14.84
2022-10-11T09:51:44.909Z,15.18
2022-10-11T09:52:55.297Z,15.25
2022-10-11T09:55:53.391Z,15.09
2022-10-11T10:37:02.453Z,15.50
2022-10-11T10:39:58.518Z,15.61
2022-10-11T10:42:28.655Z,15.39
2022-10-11T10:45:00.362Z,15.19
2022-10-11T10:47:48.363Z,15.40
2022-10-11T10:50:20.249Z,15.42
2022-10-11T10:52:56.367Z,15.22
2022-10-11T10:55:38.242Z,15.12
2022-10-11T10:58:22.947Z,15.71
2022-10-11T11:01:00.086Z,15.34
2022-10-11T11:10:13.829Z,15.31
2022-10-11T11:12:50.910Z,15.51
2022-10-11T11:15:31.241Z,15.13
2022-10-11T11:18:20.501Z,15.50
2022-10-11T11:21:09.432Z,14.95
2022-10-11T11:23:45.418Z,15.24
2022-10-11T11:26:20.419Z,15.02
2022-10-11T11:29:07.798Z,15.04
2022-10-11T11:31:52.009Z,15.25
2022-10-11T11:34:25.967Z,15.02
2022-10-11T11:36:58.131Z,15.06
2022-10-11T11:39:32.050Z,15.33
2022-10-11T11:42:05.920Z,15.19
2022-10-11T11:44:39.860Z,15.55
2022-10-11T11:47:17.911Z,15.17
2022-10-11T11:49:50.753Z,15.57
2022-10-11T11:52:28.157Z,15.54
2022-10-11T11:58:22.183Z,15.40
2022-10-11T12:00:59.809Z,15.39
2022-10-11T12:03:41.715Z,15.41
2022-10-11T12:06:25.595Z,15.12
2022-10-11T12:09:04.318Z,15.69
2022-10-11T12:11:43.626Z,15.78
2022-10-11T12:14:19.321Z,15.86
2022-10-11T12:17:07.350Z,16.09
2022-10-11T12:19:38.532Z,15.75
2022-10-11T12:22:37.516Z,15.80
2022-10-11T12:25:39.119Z,15.66
2022-10-11T12:28:48.833Z,16.00
2022-10-11T12:31:24.432Z,15.82
2022-10-11T12:34:03.911Z,15.36
2022-10-11T12:36:41.846Z,15.44
2022-10-11T12:39:43.644Z,15.78
2022-10-11T13:21:00.804Z,15.60
2022-10-11T14:33:48.354Z,15.46
2022-10-11T14:36:16.536Z,15.37
2022-10-11T14:38:44.799Z,15.05
2022-10-11T14:41:12.962Z,15.49
2022-10-11T14:43:42.466Z,15.37
2022-10-11T14:46:20.617Z,15.07
2022-10-11T14:48:56.846Z,15.09
2022-10-11T14:51:29.631Z,15.00
2022-10-11T14:53:57.772Z,15.26
2022-10-11T14:56:26.151Z,15.54
2022-10-11T14:58:55.840Z,15.36
2022-10-11T15:01:24.019Z,15.23
2022-10-11T15:03:52.362Z,15.36
2022-10-11T15:06:22.920Z,15.11
2022-10-11T15:08:51.958Z,15.38
2022-10-11T15:11:22.294Z,15.36
2022-10-11T15:13:50.787Z,15.19
2022-10-11T15:16:22.056Z,15.25
2022-10-11T15:18:52.104Z,15.19
2022-10-11T15:21:21.944Z,15.17
2022-10-11T15:23:50.863Z,15.57
2022-10-11T15:26:21.525Z,15.61
2022-10-11T15:28:50.378Z,14.96
2022-10-11T15:31:19.944Z,15.46
2022-10-11T15:33:48.671Z,15.41
2022-10-11T15:36:18.791Z,15.47
2022-10-11T15:38:47.262Z,15.44
2022-10-11T15:41:16.884Z,15.47
2022-10-11T15:43:46.898Z,15.38
2022-10-11T15:46:17.716Z,15.36
2022-10-11T15:48:47.917Z,15.30
2022-10-11T15:51:15.955Z,15.30
2022-10-11T15:53:43.945Z,15.19
2022-10-11T15:56:17.197Z,15.19
2022-10-11T15:58:45.610Z,15.15
2022-10-11T16:01:16.297Z,15.20
2022-10-11T16:03:46.925Z,15.13
2022-10-11T16:06:15.137Z,15.13
2022-10-11T16:08:43.257Z,15.25
2022-10-11T16:11:12.131Z,15.28
2022-10-11T16:13:40.496Z,15.22
2022-10-11T16:16:10.102Z,15.13
2022-10-11T16:18:38.602Z,15.13
2022-10-11T16:21:10.232Z,15.10
2022-10-11T16:23:39.073Z,15.05
2022-10-11T16:26:10.896Z,15.08
2022-10-11T16:28:40.051Z,14.90
2022-10-11T16:31:09.347Z,14.83
2022-10-11T16:34:32.827Z,14.82
2022-10-11T16:37:02.541Z,14.77
2022-10-11T16:39:30.894Z,14.70
2022-10-11T16:41:58.951Z,14.72
2022-10-11T16:44:28.008Z,14.72
2022-10-11T16:46:56.714Z,14.65
2022-10-11T16:49:27.694Z,14.59
2022-10-11T16:51:59.053Z,14.50
2022-10-11T16:54:29.556Z,14.54
2022-10-11T16:56:58.088Z,14.56
2022-10-11T16:59:26.143Z,14.55
2022-10-11T17:01:54.228Z,14.39
2022-10-11T17:04:22.451Z,14.20
2022-10-11T17:06:51.276Z,14.09
2022-10-11T17:09:19.435Z,13.95
2022-10-11T17:11:49.142Z,14.01
2022-10-11T17:14:17.690Z,13.99
2022-10-11T17:16:46.527Z,14.32
2022-10-11T17:19:17.036Z,14.16
2022-10-11T17:21:45.030Z,14.25
2022-10-11T17:24:13.304Z,13.87
2022-10-11T17:26:42.750Z,14.20
2022-10-11T17:29:16.262Z,14.34
2022-10-11T17:31:48.984Z,14.39
2022-10-11T17:34:20.401Z,14.00
2022-10-11T17:36:49.180Z,13.97
2022-10-11T17:39:19.271Z,14.34
2022-10-11T17:41:47.721Z,14.30
2022-10-11T17:44:18.943Z,14.32
2022-10-11T17:46:47.456Z,14.32
2022-10-11T17:49:15.816Z,14.21
2022-10-11T17:51:43.980Z,14.36
2022-10-11T17:54:13.271Z,14.36
2022-10-11T17:56:42.716Z,14.34
2022-10-11T17:59:18.598Z,14.19
2022-10-11T18:01:46.723Z,14.25
2022-10-11T18:04:16.938Z,14.26
2022-10-11T18:06:46.806Z,14.16
2022-10-11T18:09:17.508Z,14.19
2022-10-11T18:11:45.857Z,14.06
2022-10-11T18:14:14.083Z,14.07
2022-10-11T18:16:43.886Z,13.97
2022-10-11T18:19:14.406Z,13.92
2022-10-11T18:21:42.531Z,14.01
2022-10-11T18:24:14.973Z,13.98
2022-10-11T18:26:43.728Z,13.88
2022-10-11T18:29:12.678Z,13.93
2022-10-11T18:31:40.829Z,13.88
2022-10-11T18:34:13.935Z,13.90
2022-10-11T18:36:41.890Z,13.69
2022-10-11T18:39:13.446Z,13.84
2022-10-11T18:41:44.684Z,13.56
2022-10-11T18:44:15.225Z,13.57
2022-10-11T18:46:44.262Z,13.43
2022-10-11T18:49:14.637Z,13.43
2022-10-11T18:51:43.471Z,13.45
2022-10-11T18:54:16.735Z,13.47
2022-10-11T18:56:48.157Z,13.40
2022-10-11T18:59:16.207Z,12.95
2022-10-11T19:01:45.980Z,13.39
2022-10-11T19:04:16.958Z,13.43
2022-10-11T19:06:48.346Z,13.46
2022-10-11T19:09:21.624Z,13.40
2022-10-11T19:11:50.097Z,13.47
2022-10-11T19:14:19.755Z,13.61
2022-10-11T19:16:51.319Z,13.52
2022-10-11T19:19:22.747Z,13.57
2022-10-11T19:21:51.435Z,13.54
2022-10-11T19:24:21.194Z,13.46
2022-10-11T19:26:49.361Z,13.34
2022-10-11T19:29:19.901Z,13.31
2022-10-11T19:31:51.305Z,13.33
2022-10-11T19:34:21.287Z,13.27
2022-10-11T19:36:50.799Z,13.44
2022-10-11T19:39:19.786Z,13.50
2022-10-11T19:41:47.841Z,13.50
2022-10-11T19:44:16.398Z,13.69
2022-10-11T19:46:51.529Z,13.54
2022-10-11T19:49:25.109Z,13.54
2022-10-11T19:51:55.218Z,13.53
2022-10-11T19:54:23.581Z,13.52
2022-10-11T19:56:51.567Z,13.33
2022-10-11T19:59:19.813Z,13.34
2022-10-11T20:01:52.332Z,13.34
2022-10-11T20:04:50.686Z,13.34
2022-10-11T20:07:11.440Z,13.29
2022-10-11T20:09:39.425Z,13.25
2022-10-11T20:12:07.877Z,13.12
2022-10-11T20:14:35.880Z,13.18
2022-10-11T20:17:03.926Z,13.31
2022-10-11T20:19:33.343Z,13.18
2022-10-11T20:22:01.733Z,13.13
2022-10-11T20:24:33.620Z,13.00
2022-10-11T20:27:03.069Z,13.09
2022-10-11T20:29:31.089Z,13.00
2022-10-11T20:31:59.856Z,13.08
2022-10-11T20:34:28.451Z,13.02
2022-10-11T20:36:57.903Z,13.10
2022-10-11T20:39:26.091Z,13.08
2022-10-11T20:41:54.052Z,13.00
2022-10-11T20:44:22.019Z,13.09
2022-10-11T20:46:49.982Z,12.97
2022-10-11T20:49:19.970Z,12.84
2022-10-11T20:51:48.143Z,13.13
2022-10-11T20:54:18.107Z,13.06
2022-10-11T20:56:46.254Z,12.81
2022-10-11T20:59:14.218Z,12.96
2022-10-11T21:01:42.594Z,12.80
2022-10-11T21:04:17.773Z,12.98
2022-10-11T21:06:45.903Z,12.90
2022-10-11T21:09:16.402Z,12.76
2022-10-11T21:11:46.879Z,12.77
2022-10-11T21:14:15.046Z,13.03
2022-10-11T21:16:43.290Z,12.92
2022-10-11T21:19:16.346Z,12.90
2022-10-11T21:21:50.992Z,12.85
2022-10-11T21:24:21.543Z,12.90
2022-10-11T21:26:50.980Z,12.94
2022-10-11T21:29:19.257Z,12.78
2022-10-11T21:31:47.215Z,12.77
2022-10-11T21:34:15.677Z,12.97
2022-10-11T21:36:43.731Z,12.92
2022-10-11T21:39:11.710Z,12.87
2022-10-11T21:41:42.195Z,12.74
2022-10-11T21:44:11.723Z,12.34
2022-10-11T21:47:05.610Z,12.76
2022-10-11T21:49:27.642Z,12.70
2022-10-11T21:51:56.095Z,12.66
2022-10-11T21:54:24.085Z,12.60
2022-10-11T21:56:52.007Z,12.75
2022-10-11T21:59:22.595Z,12.75
2022-10-11T22:01:50.567Z,12.95
2022-10-11T22:04:18.623Z,13.02
2022-10-11T22:06:46.596Z,13.05
2022-10-11T22:09:14.621Z,12.85
2022-10-11T22:11:42.592Z,13.02
2022-10-11T22:14:10.772Z,12.99
2022-10-11T22:16:40.459Z,12.69
2022-10-11T22:19:08.732Z,12.71
2022-10-11T22:21:39.171Z,12.40
2022-10-11T22:24:12.740Z,12.34
2022-10-11T22:27:12.322Z,12.40
2022-10-11T22:29:34.356Z,12.01
2022-10-11T22:32:04.111Z,12.23
2022-10-11T22:34:33.440Z,12.28
2022-10-11T22:37:09.052Z,12.48
2022-10-11T22:39:37.194Z,11.87
2022-10-11T22:42:05.508Z,12.16
2022-10-11T22:47:35.602Z,11.75
2022-10-11T22:50:06.159Z,12.09
2022-10-11T22:52:34.324Z,12.15
2022-10-11T22:55:02.428Z,11.84
2022-10-11T22:57:30.831Z,12.60
2022-10-11T22:59:58.879Z,12.68
2022-10-11T23:02:26.949Z,12.52
2022-10-11T23:04:56.894Z,12.24
2022-10-11T23:07:25.036Z,12.48
2022-10-11T23:09:53.077Z,11.98
2022-10-11T23:12:21.221Z,12.31
2022-10-11T23:14:49.385Z,12.57
2022-10-11T23:17:17.498Z,12.26
2022-10-11T23:19:45.555Z,12.01
2022-10-11T23:22:15.456Z,11.84
2022-10-11T23:24:43.521Z,12.27
2022-10-11T23:27:11.614Z,12.13
2022-10-11T23:29:41.154Z,12.33
2022-10-11T23:32:10.117Z,12.42
2022-10-11T23:34:38.293Z,12.28
2022-10-11T23:37:06.852Z,12.16
2022-10-11T23:39:36.326Z,11.75
2022-10-11T23:42:04.386Z,12.13
2022-10-11T23:44:32.480Z,11.61
2022-10-11T23:47:00.528Z,11.58
2022-10-11T23:49:28.606Z,11.53
2022-10-11T23:51:57.343Z,11.50
2022-10-11T23:54:25.433Z,11.08
2022-10-11T23:56:54.852Z,11.26
2022-10-11T23:59:22.989Z,10.82
